Araucaria, Brazil
Current Conditions -  °F | °C
As of 10:00 AM on Thursday 23 Oct 2014 (Local Time) from SBCT Reporting Station
Broken Clouds Broken Clouds  
Wind Chill: 63°   Ceiling: 2000
Heat Index: 63°   Visibility: 6mi
Dew Point: 52°   Wind: 9mph
Humidity: 68%   Direction: 110°ESE
Pressure: 30.24"   Gusts: NA
Location:  25.58°S, 49.4°W
Report Text: SBCT 231200Z 11008KT 9999 SCT017 BKN020 17/11 Q1024
Loading
Personal Weather Stations






























Interactive Weather Map
Tropical Storm Tracking
New forecast layout! Learn more

10-Day Weather Forecast

Advertisements
Track Severe Weather on mobile